Nasa Shuttle Landing Facility Airport Titusville US
ICAO: KTTS
IATA: TTS
Category: Medium
Scheduled Services: No

Elevation: 10 ft
TransAlt. 18000 ft.

Airport Communications:
ORLANDO APP/DEP:134.95
CTAF:123.6
GND:121.75
PMSV METRO:34.46
TWR:128.55

KTTS Zoom In..

If you have problems with the map follow the link
https://www.worldairports.se/pages/airport.php?
ICAO=KTTS

Runways:

(A) RW 15 length 15000 ft width 300 ft
---- / hdg 155

(B) RW 33 length 15000 ft width 300 ft
---- / hdg 335

Location; KTTS
Day. 18 / Time. 11.56 Zulu
* Altimeter: 30.34
* Temperature: 20° c. 68°f.
* Wind from: KTT° Speed S kn.
Dewpoint: 13° c.
Visibility: 10 Statute Miles.
Clouds: Broken 3700 ft.
Clouds: Broken 4700 ft.

KTTS 181156Z AUTO 11009G16KT 10SM BKN037 BKN047 20/13 A3034 RMK AO2 SLP278 T02020132 10202 20187 55002 $


Wind From KTT°
Speed S kn.

 
 
jpsmedia worldairports.se 2020   terms of use